Terminal Aerodrome Forecast
Issued by NWS

Home | Current Version | Previous Version | Text Only | Print | Product List | Glossary On
Versions: 1 2 3 4 5 6 7 8 9 10 11 12 13 14 15 16 17
000
FTUS45 KTFX 210545
TAFCTB
TAF
KCTB 210545Z 2106/2206 28007KT P6SM SCT090 BKN200
     FM211200 30007KT P6SM SCT070 BKN110
     FM212000 35010KT P6SM VCSH SCT060 OVC090 PROB30 2122/2202 -TSRA
      BKN050CB=

USA.gov is the U.S. government's official web portal to all federal, state and local government web resources and services.